Gulnare, Colorado
Current Conditions -  °F | °C
As of 7:54 PM on Saturday 25 Oct 2014 (Local Time) from KTAD Reporting Station
Clear Clear  
Wind Chill: 62°   Ceiling: Unl
Heat Index: 62°   Visibility: 10mi
Dew Point: 28°   Wind: 3mph
Humidity: 28%   Direction: 240°WSW
Pressure: 30.1"   Gusts: NA
Location:  37.32°N, 104.75°W
Report Text: KTAD 260154Z AUTO 24003KT 10SM CLR 17/M02 A3010 RMK AO2 SLP139 T01671022
Loading
Personal Weather Stations






























Interactive Weather Map
Tropical Storm Tracking
New forecast layout! Learn more

10-Day Weather Forecast

Advertisements
Track Severe Weather on mobile